createdAt,value
2023-05-09T00:00:48.436Z,13.15
2023-05-09T00:03:37.126Z,13.13
2023-05-09T00:06:27.034Z,13.00
2023-05-09T00:09:15.775Z,13.57
2023-05-09T00:12:05.127Z,14.05
2023-05-09T00:14:54.454Z,13.23
2023-05-09T00:17:45.904Z,14.02
2023-05-09T00:20:35.129Z,13.20
2023-05-09T00:23:24.110Z,13.10
2023-05-09T00:26:12.907Z,13.00
2023-05-09T00:29:04.215Z,12.38
2023-05-09T00:31:53.146Z,13.35
2023-05-09T00:34:43.424Z,13.40
2023-05-09T00:37:33.172Z,13.38
2023-05-09T00:40:22.109Z,15.07
2023-05-09T00:43:11.024Z,15.23
2023-05-09T00:45:59.956Z,14.82
2023-05-09T00:48:48.718Z,14.98
2023-05-09T00:51:40.441Z,16.38
2023-05-09T00:54:29.732Z,16.33
2023-05-09T00:57:18.561Z,16.25
2023-05-09T01:00:13.255Z,15.95
2023-05-09T01:03:02.568Z,15.25
2023-05-09T01:05:57.830Z,14.38
2023-05-09T01:08:53.746Z,13.80
2023-05-09T01:11:47.030Z,14.65
2023-05-09T01:14:44.218Z,14.65
2023-05-09T01:17:42.411Z,14.05
2023-05-09T01:20:34.998Z,15.40
2023-05-09T01:23:56.144Z,14.57
2023-05-09T01:26:57.161Z,13.98
2023-05-09T01:29:49.780Z,14.15
2023-05-09T01:32:40.798Z,14.32
2023-05-09T01:35:32.580Z,13.55
2023-05-09T01:38:24.989Z,14.25
2023-05-09T01:41:16.747Z,14.60
2023-05-09T01:44:09.523Z,13.70
2023-05-09T01:47:01.408Z,13.00
2023-05-09T01:49:51.381Z,13.93
2023-05-09T01:52:43.447Z,13.40
2023-05-09T01:55:35.455Z,13.10
2023-05-09T01:58:26.226Z,13.80
2023-05-09T02:01:15.935Z,14.18
2023-05-09T02:04:07.640Z,14.32
2023-05-09T02:06:57.093Z,13.15
2023-05-09T02:09:47.515Z,14.02
2023-05-09T02:12:36.318Z,13.50
2023-05-09T02:15:26.042Z,13.77
2023-05-09T02:18:15.079Z,14.25
2023-05-09T02:21:05.831Z,14.68
2023-05-09T02:23:54.732Z,14.75
2023-05-09T02:26:44.148Z,15.10
2023-05-09T02:29:40.151Z,14.70
2023-05-09T02:32:33.459Z,14.80
2023-05-09T02:35:24.050Z,15.23
2023-05-09T02:38:15.011Z,15.50
2023-05-09T02:41:03.960Z,15.43
2023-05-09T02:43:52.821Z,15.95
2023-05-09T02:46:43.379Z,15.60
2023-05-09T02:49:32.826Z,15.32
2023-05-09T02:52:23.173Z,15.75
2023-05-09T02:55:13.739Z,14.65
2023-05-09T02:58:13.627Z,15.70
2023-05-09T03:01:05.238Z,16.33
2023-05-09T03:03:54.149Z,15.60
2023-05-09T03:06:44.089Z,14.68
2023-05-09T03:09:33.487Z,14.40
2023-05-09T03:12:24.306Z,13.65
2023-05-09T03:15:15.880Z,13.63
2023-05-09T03:18:07.411Z,14.32
2023-05-09T03:20:56.139Z,14.05
2023-05-09T03:23:45.009Z,15.35
2023-05-09T03:26:35.784Z,13.98
2023-05-09T03:29:26.211Z,14.18
2023-05-09T03:32:16.023Z,14.55
2023-05-09T03:35:05.284Z,13.63
2023-05-09T03:37:54.905Z,13.57
2023-05-09T03:40:43.945Z,12.75
2023-05-09T03:43:34.248Z,13.48
2023-05-09T03:46:25.601Z,14.02
2023-05-09T03:49:14.612Z,13.23
2023-05-09T03:52:05.103Z,13.48
2023-05-09T03:54:54.864Z,13.27
2023-05-09T03:57:44.352Z,13.07
2023-05-09T04:00:33.925Z,13.10
2023-05-09T04:03:32.469Z,12.35
2023-05-09T04:06:21.449Z,12.60
2023-05-09T04:09:10.501Z,13.00
2023-05-09T04:11:59.283Z,12.57
2023-05-09T04:14:49.116Z,13.60
2023-05-09T04:17:38.890Z,13.80
2023-05-09T04:20:29.735Z,12.85
2023-05-09T04:23:18.917Z,13.32
2023-05-09T04:26:09.833Z,13.10
2023-05-09T04:28:58.963Z,13.80
2023-05-09T04:31:47.977Z,13.60
2023-05-09T04:34:37.057Z,13.55
2023-05-09T04:37:34.891Z,12.73
2023-05-09T04:40:26.744Z,12.85
2023-05-09T04:43:20.208Z,12.65
2023-05-09T04:46:09.439Z,12.57
2023-05-09T04:48:59.696Z,12.80
2023-05-09T04:51:48.580Z,11.82
2023-05-09T04:54:38.986Z,11.63
2023-05-09T04:57:28.901Z,10.98
2023-05-09T05:00:19.812Z,11.00
2023-05-09T05:03:10.334Z,10.40
2023-05-09T05:05:59.173Z,10.38
2023-05-09T05:08:47.993Z,10.20
2023-05-09T05:11:38.394Z,11.40
2023-05-09T05:14:27.404Z,10.30
2023-05-09T05:17:18.552Z,11.18
2023-05-09T05:20:10.745Z,10.75
2023-05-09T05:23:04.056Z,10.00
2023-05-09T05:25:52.912Z,10.00
2023-05-09T05:28:43.161Z,10.30
2023-05-09T05:31:32.334Z,8.93
2023-05-09T05:34:21.197Z,9.43
2023-05-09T05:37:10.156Z,10.23
2023-05-09T05:39:59.261Z,8.77
2023-05-09T05:42:48.086Z,8.38
2023-05-09T05:45:38.330Z,8.32
2023-05-09T05:48:30.228Z,8.27
2023-05-09T05:51:19.664Z,8.13
2023-05-09T05:54:08.650Z,8.45
2023-05-09T05:56:58.779Z,8.20
2023-05-09T05:59:48.432Z,7.90
2023-05-09T06:02:39.804Z,7.80
2023-05-09T06:05:28.897Z,7.38
2023-05-09T06:08:17.594Z,7.70
2023-05-09T06:11:06.542Z,7.50
2023-05-09T06:13:55.652Z,8.05
2023-05-09T06:16:44.981Z,7.63
2023-05-09T06:19:35.756Z,8.05
2023-05-09T06:22:24.690Z,7.65
2023-05-09T06:25:13.726Z,8.52
2023-05-09T06:28:02.589Z,7.93
2023-05-09T06:30:51.469Z,7.18
2023-05-09T06:33:40.213Z,7.07
2023-05-09T06:36:31.148Z,6.63
2023-05-09T06:39:19.995Z,6.10
2023-05-09T06:42:08.842Z,6.65
2023-05-09T06:45:00.946Z,6.25
2023-05-09T06:47:49.856Z,5.22
2023-05-09T06:50:38.821Z,5.47
2023-05-09T06:53:29.026Z,5.05
2023-05-09T06:56:20.274Z,5.18
2023-05-09T06:59:13.294Z,4.80
2023-05-09T07:02:02.492Z,4.70
2023-05-09T07:04:51.545Z,4.47
2023-05-09T07:07:40.897Z,4.20
2023-05-09T07:10:31.270Z,4.13
2023-05-09T07:13:20.122Z,3.35
2023-05-09T07:16:09.086Z,2.88
2023-05-09T07:18:57.981Z,3.38
2023-05-09T07:21:46.891Z,3.00
2023-05-09T07:24:35.911Z,2.70
2023-05-09T07:27:26.235Z,2.50
2023-05-09T07:30:16.033Z,2.10
2023-05-09T07:33:05.330Z,2.05
2023-05-09T07:35:54.265Z,2.72
2023-05-09T07:38:43.016Z,2.45
2023-05-09T07:41:33.845Z,2.35
2023-05-09T07:44:24.386Z,2.53
2023-05-09T07:47:13.180Z,2.35
2023-05-09T07:50:02.352Z,1.98
2023-05-09T07:52:52.029Z,2.20
2023-05-09T07:55:41.036Z,2.13
2023-05-09T07:58:30.004Z,2.00
2023-05-09T08:01:20.228Z,2.20
2023-05-09T08:04:10.060Z,2.40
2023-05-09T08:07:01.246Z,2.50
2023-05-09T08:09:50.124Z,2.30
2023-05-09T08:12:38.809Z,2.60
2023-05-09T08:15:27.623Z,2.33
2023-05-09T08:18:17.722Z,2.40
2023-05-09T08:21:06.824Z,2.50
2023-05-09T08:23:55.901Z,2.33
2023-05-09T08:26:45.406Z,2.38
2023-05-09T08:29:34.127Z,2.20
2023-05-09T08:32:23.701Z,2.25
2023-05-09T08:35:14.283Z,2.00
2023-05-09T08:38:03.919Z,2.30
2023-05-09T08:40:52.836Z,2.20
2023-05-09T08:43:42.664Z,2.20
2023-05-09T08:46:40.134Z,2.00
2023-05-09T08:49:29.671Z,2.38
2023-05-09T08:52:20.048Z,2.58
2023-05-09T08:55:09.581Z,2.40
2023-05-09T08:57:59.558Z,2.22
2023-05-09T09:00:49.067Z,1.95
2023-05-09T09:03:39.570Z,2.03
2023-05-09T09:06:31.210Z,1.80
2023-05-09T09:09:22.318Z,2.33
2023-05-09T09:12:11.713Z,2.30
2023-05-09T09:15:05.397Z,2.00
2023-05-09T09:17:56.713Z,2.08
2023-05-09T09:20:49.071Z,2.15
2023-05-09T09:23:40.354Z,2.33
2023-05-09T09:26:32.097Z,2.70
2023-05-09T09:29:22.978Z,2.10
2023-05-09T09:32:11.845Z,2.17
2023-05-09T09:35:07.150Z,2.40
2023-05-09T09:38:00.244Z,2.47
2023-05-09T09:40:56.144Z,2.08
2023-05-09T09:43:47.902Z,2.40
2023-05-09T09:46:45.116Z,2.65
2023-05-09T09:49:34.031Z,2.50
2023-05-09T09:52:26.076Z,2.70
2023-05-09T09:55:14.925Z,2.78
2023-05-09T09:58:04.521Z,3.22
2023-05-09T10:01:08.227Z,2.20
2023-05-09T10:03:57.078Z,2.70
2023-05-09T10:06:54.398Z,2.58
2023-05-09T10:09:44.113Z,2.80
2023-05-09T10:12:34.694Z,2.78
2023-05-09T10:15:24.116Z,3.03
2023-05-09T10:18:19.900Z,3.00
2023-05-09T10:21:11.622Z,2.60
2023-05-09T10:24:01.854Z,2.63
2023-05-09T10:26:52.400Z,2.60
2023-05-09T10:29:46.659Z,2.63
2023-05-09T10:32:43.684Z,2.35
2023-05-09T10:35:37.719Z,2.35
2023-05-09T10:38:26.961Z,2.30
2023-05-09T10:41:17.304Z,2.42
2023-05-09T10:44:06.852Z,2.53
2023-05-09T10:46:56.441Z,2.30
2023-05-09T10:49:46.390Z,2.17
2023-05-09T10:52:56.759Z,2.33
2023-05-09T10:55:55.429Z,2.50
2023-05-09T10:58:44.179Z,2.13
2023-05-09T11:01:37.529Z,2.10
2023-05-09T11:04:26.788Z,2.45
2023-05-09T11:07:26.541Z,2.42
2023-05-09T11:10:18.658Z,2.13
2023-05-09T11:13:11.116Z,2.25
2023-05-09T11:16:13.578Z,2.40
2023-05-09T11:19:02.655Z,2.05
2023-05-09T11:22:03.207Z,2.45
2023-05-09T11:24:54.144Z,2.30
2023-05-09T11:27:44.675Z,2.15
2023-05-09T11:30:43.973Z,2.13
2023-05-09T11:33:33.690Z,2.00
2023-05-09T11:36:29.871Z,2.50
2023-05-09T11:39:26.539Z,2.00
2023-05-09T11:42:15.686Z,1.75
2023-05-09T11:45:07.553Z,2.13
2023-05-09T11:47:58.994Z,2.10
2023-05-09T11:50:49.882Z,1.92
2023-05-09T11:53:47.039Z,2.17
2023-05-09T11:56:37.308Z,2.25
2023-05-09T11:59:26.649Z,2.05
2023-05-09T12:02:16.421Z,2.35
2023-05-09T12:05:11.248Z,1.90
2023-05-09T12:08:04.925Z,2.20
2023-05-09T12:10:53.654Z,2.03
2023-05-09T12:13:49.491Z,1.73
2023-05-09T12:16:47.069Z,2.10
2023-05-09T12:19:36.788Z,1.80
2023-05-09T12:22:27.536Z,2.00
2023-05-09T12:25:16.650Z,1.90
2023-05-09T12:28:06.580Z,2.00
2023-05-09T12:30:56.381Z,1.63
2023-05-09T12:33:45.372Z,1.90
2023-05-09T12:36:37.160Z,1.90
2023-05-09T12:39:27.662Z,2.53
2023-05-09T12:42:16.452Z,1.92
2023-05-09T12:45:06.239Z,1.90
2023-05-09T12:47:55.311Z,2.55
2023-05-09T12:50:48.975Z,2.40
2023-05-09T12:53:40.523Z,2.38
2023-05-09T12:56:35.443Z,2.60
2023-05-09T12:59:25.267Z,2.72
2023-05-09T13:02:15.023Z,2.80
2023-05-09T13:05:09.050Z,2.50
2023-05-09T13:07:58.723Z,2.30
2023-05-09T13:10:47.680Z,2.25
2023-05-09T13:13:38.128Z,2.20
2023-05-09T13:16:27.106Z,2.13
2023-05-09T13:19:16.475Z,2.15
2023-05-09T13:22:05.242Z,2.22
2023-05-09T13:24:53.968Z,2.25
2023-05-09T13:27:42.726Z,2.00
2023-05-09T13:30:33.102Z,2.80
2023-05-09T13:33:26.006Z,3.33
2023-05-09T13:36:16.349Z,2.33
2023-05-09T13:39:05.331Z,2.65
2023-05-09T13:41:54.070Z,2.38
2023-05-09T13:44:43.178Z,2.28
2023-05-09T13:47:33.646Z,2.22
2023-05-09T13:50:22.839Z,2.10
2023-05-09T13:53:11.722Z,2.00
2023-05-09T13:56:00.776Z,2.47
2023-05-09T13:58:50.627Z,2.22
2023-05-09T14:01:39.488Z,2.30
2023-05-09T14:04:32.154Z,1.90
2023-05-09T14:07:21.832Z,2.03
2023-05-09T14:10:12.168Z,2.60
2023-05-09T14:13:01.246Z,2.20
2023-05-09T14:15:50.169Z,2.03
2023-05-09T14:18:39.045Z,2.20
2023-05-09T14:21:29.265Z,2.40
2023-05-09T14:24:18.389Z,2.40
2023-05-09T14:27:07.245Z,2.22
2023-05-09T14:29:56.360Z,2.00
2023-05-09T14:32:45.102Z,2.10
2023-05-09T14:35:34.655Z,2.40
2023-05-09T14:38:24.772Z,1.98
2023-05-09T14:41:14.493Z,2.00
2023-05-09T14:44:03.723Z,2.35
2023-05-09T14:46:52.844Z,1.85
2023-05-09T14:49:42.022Z,2.25
2023-05-09T14:52:30.993Z,2.38
2023-05-09T14:55:23.187Z,2.38
2023-05-09T14:58:13.541Z,2.28
2023-05-09T15:01:02.669Z,2.42
2023-05-09T15:03:51.405Z,2.25
2023-05-09T15:06:41.129Z,2.45
2023-05-09T15:09:29.921Z,1.75
2023-05-09T15:12:20.165Z,2.35
2023-05-09T15:15:17.076Z,2.08
2023-05-09T15:18:06.030Z,1.98
2023-05-09T15:20:54.835Z,2.30
2023-05-09T15:23:43.539Z,2.13
2023-05-09T15:26:32.439Z,2.42
2023-05-09T15:29:22.822Z,2.35
2023-05-09T15:32:11.578Z,2.42
2023-05-09T15:35:00.434Z,2.30
2023-05-09T15:37:49.746Z,2.35
2023-05-09T15:40:38.891Z,3.20
2023-05-09T15:43:27.800Z,3.05
2023-05-09T15:46:18.201Z,2.85
2023-05-09T15:49:07.065Z,2.58
2023-05-09T15:51:55.875Z,2.30
2023-05-09T15:54:45.390Z,2.13
2023-05-09T15:57:34.401Z,2.55
2023-05-09T16:00:23.592Z,2.78
2023-05-09T16:03:13.997Z,2.53
2023-05-09T16:06:03.404Z,2.60
2023-05-09T16:08:52.174Z,2.80
2023-05-09T16:11:41.500Z,2.88
2023-05-09T16:14:30.457Z,2.38
2023-05-09T16:17:19.757Z,2.30
2023-05-09T16:20:13.893Z,2.58
2023-05-09T16:23:03.145Z,2.35
2023-05-09T16:25:51.988Z,2.40
2023-05-09T16:28:40.973Z,2.50
2023-05-09T16:31:32.165Z,2.10
2023-05-09T16:34:22.060Z,2.40
2023-05-09T16:37:12.541Z,2.60
2023-05-09T16:40:01.616Z,2.10
2023-05-09T16:42:50.673Z,2.22
2023-05-09T16:45:39.512Z,2.13
2023-05-09T16:48:30.000Z,2.10
2023-05-09T16:51:19.188Z,2.20
2023-05-09T16:54:09.626Z,2.20
2023-05-09T16:56:58.438Z,2.25
2023-05-09T16:59:47.602Z,2.05
2023-05-09T17:02:37.262Z,2.10
2023-05-09T17:05:26.315Z,2.45
2023-05-09T17:08:15.359Z,2.25
2023-05-09T17:11:06.665Z,2.10
2023-05-09T17:13:55.385Z,2.08
2023-05-09T17:16:44.494Z,2.10
2023-05-09T17:19:34.787Z,2.63
2023-05-09T17:22:23.579Z,2.30
2023-05-09T17:25:12.618Z,2.20
2023-05-09T17:28:03.189Z,2.33
2023-05-09T17:30:51.961Z,2.63
2023-05-09T17:33:41.871Z,2.55
2023-05-09T17:36:31.993Z,2.60
2023-05-09T17:39:20.797Z,2.50
2023-05-09T17:42:10.694Z,3.22
2023-05-09T17:45:02.307Z,3.13
2023-05-09T17:47:51.151Z,2.70
2023-05-09T17:50:39.897Z,2.78
2023-05-09T17:53:28.557Z,2.72
2023-05-09T17:56:17.420Z,3.20
2023-05-09T17:59:06.779Z,3.50
2023-05-09T18:01:57.411Z,3.88
2023-05-09T18:04:46.608Z,3.85
2023-05-09T18:07:35.415Z,4.18
2023-05-09T18:10:24.310Z,3.63
2023-05-09T18:13:14.016Z,3.60
2023-05-09T18:16:03.384Z,4.05
2023-05-09T18:18:53.806Z,4.18
2023-05-09T18:21:42.544Z,3.90
2023-05-09T18:24:31.677Z,3.75
2023-05-09T18:27:20.487Z,3.63
2023-05-09T18:30:10.524Z,3.22
2023-05-09T18:33:01.714Z,2.90
2023-05-09T18:35:52.080Z,3.10
2023-05-09T18:38:41.678Z,3.00
2023-05-09T18:41:32.057Z,3.05
2023-05-09T18:44:20.963Z,3.25
2023-05-09T18:47:09.944Z,3.78
2023-05-09T18:50:01.742Z,3.90
2023-05-09T18:52:52.794Z,3.85
2023-05-09T18:55:42.890Z,3.83
2023-05-09T18:58:32.447Z,4.10
2023-05-09T19:01:21.519Z,3.63
2023-05-09T19:04:10.414Z,3.60
2023-05-09T19:07:00.092Z,3.75
2023-05-09T19:09:50.689Z,4.25
2023-05-09T19:12:39.482Z,4.10
2023-05-09T19:15:29.702Z,3.90
2023-05-09T19:18:18.489Z,4.40
2023-05-09T19:21:07.361Z,4.65
2023-05-09T19:23:56.382Z,4.50
2023-05-09T19:26:46.603Z,6.72
2023-05-09T19:29:35.400Z,7.22
2023-05-09T19:32:24.226Z,7.68
2023-05-09T19:35:13.093Z,7.63
2023-05-09T19:38:02.352Z,7.55
2023-05-09T19:40:51.344Z,7.78
2023-05-09T19:43:41.538Z,7.28
2023-05-09T19:46:30.464Z,6.65
2023-05-09T19:49:19.540Z,6.57
2023-05-09T19:52:08.455Z,6.43
2023-05-09T19:54:57.159Z,6.60
2023-05-09T19:57:46.106Z,5.90
2023-05-09T20:00:38.880Z,6.50
2023-05-09T20:03:27.864Z,6.20
2023-05-09T20:06:16.836Z,6.43
2023-05-09T20:09:05.796Z,6.45
2023-05-09T20:11:54.490Z,6.50
2023-05-09T20:14:44.473Z,6.45
2023-05-09T20:17:34.871Z,7.28
2023-05-09T20:20:23.804Z,6.88
2023-05-09T20:23:12.659Z,7.32
2023-05-09T20:26:01.550Z,7.03
2023-05-09T20:28:50.481Z,6.60
2023-05-09T20:31:42.406Z,7.35
2023-05-09T20:34:32.803Z,7.57
2023-05-09T20:37:21.568Z,7.75
2023-05-09T20:40:11.214Z,7.63
2023-05-09T20:43:00.436Z,7.95
2023-05-09T20:45:50.205Z,8.85
2023-05-09T20:48:39.399Z,8.10
2023-05-09T20:51:30.230Z,8.15
2023-05-09T20:54:19.308Z,8.55
2023-05-09T20:57:08.274Z,10.27
2023-05-09T20:59:57.087Z,13.63
2023-05-09T21:02:46.094Z,13.25
2023-05-09T21:05:34.837Z,14.10
2023-05-09T21:08:26.474Z,12.93
2023-05-09T21:11:15.590Z,13.38
2023-05-09T21:14:04.469Z,13.15
2023-05-09T21:16:55.147Z,15.23
2023-05-09T21:19:44.171Z,13.57
2023-05-09T21:22:33.216Z,13.52
2023-05-09T21:25:23.549Z,13.75
2023-05-09T21:28:14.568Z,12.77
2023-05-09T21:31:03.540Z,13.40
2023-05-09T21:33:52.526Z,12.25
2023-05-09T21:36:42.312Z,11.23
2023-05-09T21:39:33.322Z,10.52
2023-05-09T21:42:24.189Z,9.68
2023-05-09T21:45:13.152Z,9.23
2023-05-09T21:48:02.353Z,9.40
2023-05-09T21:50:51.181Z,9.65
2023-05-09T21:53:39.977Z,9.38
2023-05-09T21:56:28.789Z,9.10
2023-05-09T21:59:20.867Z,9.13
2023-05-09T22:02:09.736Z,9.55
2023-05-09T22:04:58.681Z,9.20
2023-05-09T22:07:47.494Z,9.73
2023-05-09T22:10:37.846Z,9.23
2023-05-09T22:13:29.012Z,8.85
2023-05-09T22:16:19.515Z,8.40
2023-05-09T22:19:08.529Z,8.10
2023-05-09T22:21:57.420Z,8.32
2023-05-09T22:24:46.304Z,9.02
2023-05-09T22:27:35.163Z,7.88
2023-05-09T22:30:24.233Z,8.05
2023-05-09T22:33:14.357Z,8.10
2023-05-09T22:36:03.453Z,8.05
2023-05-09T22:38:52.178Z,7.57
2023-05-09T22:41:40.881Z,8.27
2023-05-09T22:44:30.967Z,8.07
2023-05-09T22:47:19.655Z,7.53
2023-05-09T22:50:12.257Z,8.13
2023-05-09T22:53:01.142Z,7.88
2023-05-09T22:55:49.864Z,7.03
2023-05-09T22:58:38.517Z,7.50
2023-05-09T23:01:28.581Z,8.10
2023-05-09T23:04:17.493Z,8.63
2023-05-09T23:07:07.882Z,7.63
2023-05-09T23:09:56.667Z,7.55
2023-05-09T23:12:45.507Z,8.52
2023-05-09T23:15:34.744Z,8.50
2023-05-09T23:18:24.034Z,8.57
2023-05-09T23:21:13.017Z,8.98
2023-05-09T23:24:03.480Z,8.38
2023-05-09T23:26:52.228Z,9.02
2023-05-09T23:29:41.009Z,9.43
2023-05-09T23:32:29.708Z,9.07
2023-05-09T23:35:19.308Z,8.52
2023-05-09T23:38:08.151Z,9.48
2023-05-09T23:41:00.254Z,9.15
2023-05-09T23:43:49.360Z,8.85
2023-05-09T23:46:38.389Z,8.57
2023-05-09T23:49:27.393Z,8.25
2023-05-09T23:52:16.522Z,8.90
2023-05-09T23:55:05.995Z,8.48
2023-05-09T23:57:56.505Z,11.50
